sensor_id;sensor_type;location;lat;lon;timestamp;P1;durP1;ratioP1;P2;durP2;ratioP2
12980;SDS011;6555;50.468;8.480;2023-08-31T00:02:26;1.33;;;1.00;;
12980;SDS011;6555;50.468;8.480;2023-08-31T00:07:31;1.77;;;1.10;;
12980;SDS011;6555;50.468;8.480;2023-08-31T00:12:35;0.90;;;0.90;;
12980;SDS011;6555;50.468;8.480;2023-08-31T00:17:39;0.80;;;0.80;;
12980;SDS011;6555;50.468;8.480;2023-08-31T00:22:50;1.00;;;0.83;;
12980;SDS011;6555;50.468;8.480;2023-08-31T00:27:54;0.80;;;0.80;;
12980;SDS011;6555;50.468;8.480;2023-08-31T00:33:00;0.70;;;0.70;;
12980;SDS011;6555;50.468;8.480;2023-08-31T00:38:12;1.20;;;0.87;;
12980;SDS011;6555;50.468;8.480;2023-08-31T00:43:16;1.00;;;0.80;;
12980;SDS011;6555;50.468;8.480;2023-08-31T00:48:22;1.10;;;0.90;;
12980;SDS011;6555;50.468;8.480;2023-08-31T00:53:27;2.67;;;0.90;;
12980;SDS011;6555;50.468;8.480;2023-08-31T00:58:34;1.00;;;0.70;;
12980;SDS011;6555;50.468;8.480;2023-08-31T01:03:40;0.70;;;0.70;;
12980;SDS011;6555;50.468;8.480;2023-08-31T01:08:53;1.10;;;0.80;;
12980;SDS011;6555;50.468;8.480;2023-08-31T01:14:01;1.43;;;1.00;;
12980;SDS011;6555;50.468;8.480;2023-08-31T01:19:14;1.07;;;0.90;;
12980;SDS011;6555;50.468;8.480;2023-08-31T01:24:37;0.93;;;0.93;;
12980;SDS011;6555;50.468;8.480;2023-08-31T01:29:42;1.10;;;1.00;;
12980;SDS011;6555;50.468;8.480;2023-08-31T01:34:46;1.43;;;1.10;;
12980;SDS011;6555;50.468;8.480;2023-08-31T01:39:52;1.10;;;1.00;;
12980;SDS011;6555;50.468;8.480;2023-08-31T01:45:03;0.90;;;0.80;;
12980;SDS011;6555;50.468;8.480;2023-08-31T01:50:11;0.87;;;0.87;;
12980;SDS011;6555;50.468;8.480;2023-08-31T01:55:16;1.20;;;1.00;;
12980;SDS011;6555;50.468;8.480;2023-08-31T02:00:23;0.83;;;0.77;;
12980;SDS011;6555;50.468;8.480;2023-08-31T02:05:29;0.93;;;0.90;;
12980;SDS011;6555;50.468;8.480;2023-08-31T02:10:34;2.17;;;0.93;;
12980;SDS011;6555;50.468;8.480;2023-08-31T02:15:38;1.33;;;1.00;;
12980;SDS011;6555;50.468;8.480;2023-08-31T02:20:42;1.00;;;0.90;;
12980;SDS011;6555;50.468;8.480;2023-08-31T02:25:47;1.03;;;0.97;;
12980;SDS011;6555;50.468;8.480;2023-08-31T02:30:57;1.20;;;1.10;;
12980;SDS011;6555;50.468;8.480;2023-08-31T02:36:04;1.60;;;1.10;;
12980;SDS011;6555;50.468;8.480;2023-08-31T02:41:10;1.83;;;1.20;;
12980;SDS011;6555;50.468;8.480;2023-08-31T02:46:13;1.57;;;1.30;;
12980;SDS011;6555;50.468;8.480;2023-08-31T02:51:17;2.30;;;1.30;;
12980;SDS011;6555;50.468;8.480;2023-08-31T02:56:22;1.53;;;1.10;;
12980;SDS011;6555;50.468;8.480;2023-08-31T03:01:26;1.40;;;1.13;;
12980;SDS011;6555;50.468;8.480;2023-08-31T03:06:31;1.77;;;1.20;;
12980;SDS011;6555;50.468;8.480;2023-08-31T03:11:37;1.23;;;1.13;;
12980;SDS011;6555;50.468;8.480;2023-08-31T03:16:41;1.53;;;1.20;;
12980;SDS011;6555;50.468;8.480;2023-08-31T03:21:44;2.10;;;1.20;;
12980;SDS011;6555;50.468;8.480;2023-08-31T03:26:50;1.10;;;0.87;;
12980;SDS011;6555;50.468;8.480;2023-08-31T03:31:54;1.23;;;1.10;;
12980;SDS011;6555;50.468;8.480;2023-08-31T03:36:58;2.67;;;1.60;;
12980;SDS011;6555;50.468;8.480;2023-08-31T03:42:04;1.67;;;1.20;;
12980;SDS011;6555;50.468;8.480;2023-08-31T03:47:08;1.57;;;1.30;;
12980;SDS011;6555;50.468;8.480;2023-08-31T03:52:11;1.20;;;1.10;;
12980;SDS011;6555;50.468;8.480;2023-08-31T03:57:16;1.60;;;1.30;;
12980;SDS011;6555;50.468;8.480;2023-08-31T04:02:20;1.40;;;1.30;;
12980;SDS011;6555;50.468;8.480;2023-08-31T04:07:25;1.43;;;1.33;;
12980;SDS011;6555;50.468;8.480;2023-08-31T04:12:32;1.50;;;1.40;;
12980;SDS011;6555;50.468;8.480;2023-08-31T04:17:36;3.60;;;1.50;;
12980;SDS011;6555;50.468;8.480;2023-08-31T04:22:40;1.37;;;1.27;;
12980;SDS011;6555;50.468;8.480;2023-08-31T04:27:45;1.30;;;1.20;;
12980;SDS011;6555;50.468;8.480;2023-08-31T04:32:48;2.57;;;1.53;;
12980;SDS011;6555;50.468;8.480;2023-08-31T04:37:52;1.87;;;1.20;;
12980;SDS011;6555;50.468;8.480;2023-08-31T04:42:57;1.53;;;1.13;;
12980;SDS011;6555;50.468;8.480;2023-08-31T04:48:00;1.63;;;1.33;;
12980;SDS011;6555;50.468;8.480;2023-08-31T04:53:05;2.57;;;1.30;;
12980;SDS011;6555;50.468;8.480;2023-08-31T04:58:10;1.30;;;1.20;;
12980;SDS011;6555;50.468;8.480;2023-08-31T05:03:14;1.43;;;1.33;;
12980;SDS011;6555;50.468;8.480;2023-08-31T05:08:17;1.30;;;1.20;;
12980;SDS011;6555;50.468;8.480;2023-08-31T05:13:22;1.10;;;1.10;;
12980;SDS011;6555;50.468;8.480;2023-08-31T05:18:26;1.30;;;1.20;;
12980;SDS011;6555;50.468;8.480;2023-08-31T05:23:30;1.23;;;1.13;;
12980;SDS011;6555;50.468;8.480;2023-08-31T05:28:35;2.70;;;1.37;;
12980;SDS011;6555;50.468;8.480;2023-08-31T05:33:39;1.90;;;1.33;;
12980;SDS011;6555;50.468;8.480;2023-08-31T05:38:42;2.27;;;1.30;;
12980;SDS011;6555;50.468;8.480;2023-08-31T05:43:47;3.03;;;1.50;;
12980;SDS011;6555;50.468;8.480;2023-08-31T05:48:51;2.03;;;1.40;;
12980;SDS011;6555;50.468;8.480;2023-08-31T05:53:55;1.60;;;1.50;;
12980;SDS011;6555;50.468;8.480;2023-08-31T05:59:00;1.93;;;1.50;;
12980;SDS011;6555;50.468;8.480;2023-08-31T06:04:04;1.77;;;1.47;;
12980;SDS011;6555;50.468;8.480;2023-08-31T06:09:08;1.77;;;1.50;;
12980;SDS011;6555;50.468;8.480;2023-08-31T06:14:13;1.20;;;1.10;;
12980;SDS011;6555;50.468;8.480;2023-08-31T06:19:17;1.40;;;1.27;;
12980;SDS011;6555;50.468;8.480;2023-08-31T06:24:21;1.40;;;1.13;;
12980;SDS011;6555;50.468;8.480;2023-08-31T06:29:26;2.10;;;1.20;;
12980;SDS011;6555;50.468;8.480;2023-08-31T06:34:30;1.40;;;1.27;;
12980;SDS011;6555;50.468;8.480;2023-08-31T06:39:34;1.60;;;1.40;;
12980;SDS011;6555;50.468;8.480;2023-08-31T06:44:39;1.90;;;1.40;;
12980;SDS011;6555;50.468;8.480;2023-08-31T06:49:44;1.30;;;1.20;;
12980;SDS011;6555;50.468;8.480;2023-08-31T06:54:50;1.40;;;1.20;;
12980;SDS011;6555;50.468;8.480;2023-08-31T07:00:00;2.90;;;1.40;;
12980;SDS011;6555;50.468;8.480;2023-08-31T07:05:05;2.63;;;1.40;;
12980;SDS011;6555;50.468;8.480;2023-08-31T07:10:12;2.00;;;1.60;;
12980;SDS011;6555;50.468;8.480;2023-08-31T07:15:19;2.27;;;1.60;;
12980;SDS011;6555;50.468;8.480;2023-08-31T07:20:22;1.90;;;1.60;;
12980;SDS011;6555;50.468;8.480;2023-08-31T07:25:27;2.70;;;1.67;;
12980;SDS011;6555;50.468;8.480;2023-08-31T07:30:32;3.40;;;1.80;;
12980;SDS011;6555;50.468;8.480;2023-08-31T07:35:36;1.60;;;1.30;;
12980;SDS011;6555;50.468;8.480;2023-08-31T07:40:40;1.53;;;1.13;;
12980;SDS011;6555;50.468;8.480;2023-08-31T07:45:48;1.93;;;1.53;;
12980;SDS011;6555;50.468;8.480;2023-08-31T07:50:55;2.80;;;1.47;;
12980;SDS011;6555;50.468;8.480;2023-08-31T07:55:59;1.30;;;1.20;;
12980;SDS011;6555;50.468;8.480;2023-08-31T08:01:05;2.63;;;1.30;;
12980;SDS011;6555;50.468;8.480;2023-08-31T08:06:13;2.03;;;1.30;;
12980;SDS011;6555;50.468;8.480;2023-08-31T08:11:25;1.47;;;1.23;;
12980;SDS011;6555;50.468;8.480;2023-08-31T08:16:31;1.60;;;1.03;;
12980;SDS011;6555;50.468;8.480;2023-08-31T08:21:41;1.97;;;1.20;;
12980;SDS011;6555;50.468;8.480;2023-08-31T08:26:46;1.50;;;1.40;;
12980;SDS011;6555;50.468;8.480;2023-08-31T08:31:52;1.93;;;1.60;;
12980;SDS011;6555;50.468;8.480;2023-08-31T08:37:06;2.37;;;1.13;;
12980;SDS011;6555;50.468;8.480;2023-08-31T08:42:10;1.30;;;1.10;;
12980;SDS011;6555;50.468;8.480;2023-08-31T08:47:19;1.30;;;1.10;;
12980;SDS011;6555;50.468;8.480;2023-08-31T08:52:30;2.50;;;1.23;;
12980;SDS011;6555;50.468;8.480;2023-08-31T08:57:34;1.90;;;1.60;;
12980;SDS011;6555;50.468;8.480;2023-08-31T09:02:43;1.90;;;1.00;;
12980;SDS011;6555;50.468;8.480;2023-08-31T09:07:59;1.20;;;1.10;;
12980;SDS011;6555;50.468;8.480;2023-08-31T09:13:07;2.23;;;1.13;;
12980;SDS011;6555;50.468;8.480;2023-08-31T09:18:22;2.00;;;1.17;;
12980;SDS011;6555;50.468;8.480;2023-08-31T09:23:30;0.90;;;0.90;;
12980;SDS011;6555;50.468;8.480;2023-08-31T09:28:46;1.80;;;1.30;;
12980;SDS011;6555;50.468;8.480;2023-08-31T09:34:02;1.35;;;1.20;;
12980;SDS011;6555;50.468;8.480;2023-08-31T09:39:15;2.53;;;1.30;;
12980;SDS011;6555;50.468;8.480;2023-08-31T09:44:39;1.98;;;1.10;;
12980;SDS011;6555;50.468;8.480;2023-08-31T09:49:52;1.98;;;1.00;;
12980;SDS011;6555;50.468;8.480;2023-08-31T09:55:03;1.02;;;1.00;;
12980;SDS011;6555;50.468;8.480;2023-08-31T10:00:18;1.20;;;1.00;;
12980;SDS011;6555;50.468;8.480;2023-08-31T10:05:29;1.48;;;1.00;;
12980;SDS011;6555;50.468;8.480;2023-08-31T10:10:35;2.45;;;1.30;;
12980;SDS011;6555;50.468;8.480;2023-08-31T10:15:46;1.52;;;1.02;;
12980;SDS011;6555;50.468;8.480;2023-08-31T10:21:02;1.88;;;0.85;;
12980;SDS011;6555;50.468;8.480;2023-08-31T10:26:23;1.65;;;1.10;;
12980;SDS011;6555;50.468;8.480;2023-08-31T10:31:48;1.88;;;1.05;;
12980;SDS011;6555;50.468;8.480;2023-08-31T10:37:28;1.10;;;0.90;;
12980;SDS011;6555;50.468;8.480;2023-08-31T10:42:42;0.80;;;0.80;;
12980;SDS011;6555;50.468;8.480;2023-08-31T10:47:53;1.17;;;1.08;;
12980;SDS011;6555;50.468;8.480;2023-08-31T10:53:10;1.20;;;1.00;;
12980;SDS011;6555;50.468;8.480;2023-08-31T10:58:33;1.83;;;1.20;;
12980;SDS011;6555;50.468;8.480;2023-08-31T11:03:57;1.60;;;1.10;;
12980;SDS011;6555;50.468;8.480;2023-08-31T11:09:17;1.40;;;1.10;;
12980;SDS011;6555;50.468;8.480;2023-08-31T11:14:32;2.00;;;1.20;;
12980;SDS011;6555;50.468;8.480;2023-08-31T11:19:53;1.58;;;1.10;;
12980;SDS011;6555;50.468;8.480;2023-08-31T11:25:06;1.52;;;1.08;;
12980;SDS011;6555;50.468;8.480;2023-08-31T11:30:24;1.17;;;1.08;;
12980;SDS011;6555;50.468;8.480;2023-08-31T11:35:44;2.75;;;0.93;;
12980;SDS011;6555;50.468;8.480;2023-08-31T11:41:02;1.63;;;1.08;;
12980;SDS011;6555;50.468;8.480;2023-08-31T11:46:17;0.98;;;0.88;;
12980;SDS011;6555;50.468;8.480;2023-08-31T11:51:43;1.00;;;0.90;;
12980;SDS011;6555;50.468;8.480;2023-08-31T11:57:06;2.08;;;1.10;;
12980;SDS011;6555;50.468;8.480;2023-08-31T12:02:23;1.58;;;1.30;;
12980;SDS011;6555;50.468;8.480;2023-08-31T12:07:45;1.27;;;1.10;;
12980;SDS011;6555;50.468;8.480;2023-08-31T12:13:14;1.60;;;1.05;;
12980;SDS011;6555;50.468;8.480;2023-08-31T12:18:36;3.25;;;1.10;;
12980;SDS011;6555;50.468;8.480;2023-08-31T12:24:04;1.50;;;1.10;;
12980;SDS011;6555;50.468;8.480;2023-08-31T12:35:53;2.15;;;1.30;;
12980;SDS011;6555;50.468;8.480;2023-08-31T12:47:00;1.98;;;1.20;;
12980;SDS011;6555;50.468;8.480;2023-08-31T12:52:53;1.90;;;1.17;;
12980;SDS011;6555;50.468;8.480;2023-08-31T12:58:35;1.50;;;1.15;;
12980;SDS011;6555;50.468;8.480;2023-08-31T13:04:47;1.58;;;0.98;;
12980;SDS011;6555;50.468;8.480;2023-08-31T13:10:20;1.90;;;1.10;;
12980;SDS011;6555;50.468;8.480;2023-08-31T13:15:57;1.33;;;0.98;;
12980;SDS011;6555;50.468;8.480;2023-08-31T13:21:24;1.83;;;1.33;;
12980;SDS011;6555;50.468;8.480;2023-08-31T13:33:29;1.48;;;1.20;;
12980;SDS011;6555;50.468;8.480;2023-08-31T13:39:33;1.40;;;1.30;;
12980;SDS011;6555;50.468;8.480;2023-08-31T13:51:16;2.83;;;1.40;;
12980;SDS011;6555;50.468;8.480;2023-08-31T13:56:49;1.70;;;1.20;;
12980;SDS011;6555;50.468;8.480;2023-08-31T14:02:41;1.90;;;1.35;;
12980;SDS011;6555;50.468;8.480;2023-08-31T14:15:12;1.40;;;1.02;;
12980;SDS011;6555;50.468;8.480;2023-08-31T14:20:52;2.00;;;1.10;;
12980;SDS011;6555;50.468;8.480;2023-08-31T14:33:02;1.42;;;1.08;;
12980;SDS011;6555;50.468;8.480;2023-08-31T14:45:08;1.27;;;1.17;;
12980;SDS011;6555;50.468;8.480;2023-08-31T14:51:12;1.50;;;1.10;;
12980;SDS011;6555;50.468;8.480;2023-08-31T17:38:02;1.77;;;0.90;;
12980;SDS011;6555;50.468;8.480;2023-08-31T17:50:21;1.83;;;1.20;;
12980;SDS011;6555;50.468;8.480;2023-08-31T18:47:27;1.40;;;1.08;;
12980;SDS011;6555;50.468;8.480;2023-08-31T19:27:31;1.45;;;1.08;;
12980;SDS011;6555;50.468;8.480;2023-08-31T19:33:31;1.98;;;1.23;;
12980;SDS011;6555;50.468;8.480;2023-08-31T19:39:30;1.17;;;1.00;;
12980;SDS011;6555;50.468;8.480;2023-08-31T19:45:32;2.40;;;1.02;;
12980;SDS011;6555;50.468;8.480;2023-08-31T19:51:33;1.47;;;1.00;;
12980;SDS011;6555;50.468;8.480;2023-08-31T19:57:28;1.08;;;0.85;;
12980;SDS011;6555;50.468;8.480;2023-08-31T20:11:27;1.92;;;1.00;;
12980;SDS011;6555;50.468;8.480;2023-08-31T21:12:16;2.27;;;1.07;;
12980;SDS011;6555;50.468;8.480;2023-08-31T21:32:41;2.30;;;1.23;;
12980;SDS011;6555;50.468;8.480;2023-08-31T21:58:53;1.33;;;1.00;;
12980;SDS011;6555;50.468;8.480;2023-08-31T22:05:05;3.60;;;1.10;;
12980;SDS011;6555;50.468;8.480;2023-08-31T22:18:35;1.10;;;0.87;;
12980;SDS011;6555;50.468;8.480;2023-08-31T22:45:22;1.40;;;1.00;;
12980;SDS011;6555;50.468;8.480;2023-08-31T22:52:56;1.40;;;1.00;;
12980;SDS011;6555;50.468;8.480;2023-08-31T22:58:49;2.22;;;1.00;;
12980;SDS011;6555;50.468;8.480;2023-08-31T23:11:41;1.47;;;1.10;;
12980;SDS011;6555;50.468;8.480;2023-08-31T23:17:34;3.13;;;1.30;;
12980;SDS011;6555;50.468;8.480;2023-08-31T23:23:05;1.97;;;1.20;;
12980;SDS011;6555;50.468;8.480;2023-08-31T23:59:24;1.80;;;1.10;;
